createdAt,value
2023-01-21T00:03:58.727Z,99313.6
2023-01-21T00:09:35.168Z,99311.8
2023-01-21T00:15:10.537Z,99308.5
2023-01-21T00:21:06.943Z,99302.8
2023-01-21T00:27:02.586Z,99307.3
2023-01-21T00:32:46.347Z,99309.7
2023-01-21T00:38:21.487Z,99307.8
2023-01-21T00:44:06.282Z,99307.6
2023-01-21T00:50:05.923Z,99308.7
2023-01-21T00:55:39.247Z,99313.8
2023-01-21T01:02:13.547Z,99305.1
2023-01-21T01:08:05.749Z,99299.5
2023-01-21T01:13:51.057Z,99301.5
2023-01-21T01:19:33.003Z,99299
2023-01-21T01:25:20.749Z,99294.9
2023-01-21T01:31:01.551Z,99292.4
2023-01-21T01:36:48.482Z,99296.3
2023-01-21T01:42:23.565Z,99297.5
2023-01-21T01:48:19.671Z,99302
2023-01-21T01:55:03.219Z,99299.9
2023-01-21T02:00:38.465Z,99296.1
2023-01-21T02:08:08.355Z,99299.3
2023-01-21T02:13:50.283Z,99301.3
2023-01-21T02:19:30.232Z,99304.9
2023-01-21T02:25:25.391Z,99307.8
2023-01-21T02:31:01.969Z,99307.2
2023-01-21T02:36:38.404Z,99301
2023-01-21T02:42:13.554Z,99299.2
2023-01-21T02:48:13.640Z,99297.6
2023-01-21T02:53:49.836Z,99293.9
2023-01-21T03:00:48.505Z,99303.2
2023-01-21T03:06:33.231Z,99298.3
2023-01-21T03:12:08.728Z,99298.6
2023-01-21T03:17:52.784Z,99302.1
2023-01-21T03:23:27.974Z,99299.1
2023-01-21T03:29:06.336Z,99298.7
2023-01-21T03:34:45.045Z,99296.4
2023-01-21T03:40:24.216Z,99306.1
2023-01-21T03:45:59.687Z,99301.8
2023-01-21T03:51:35.624Z,99301.1
2023-01-21T03:57:19.530Z,99296.3
2023-01-21T04:03:52.834Z,99289.3
2023-01-21T04:09:52.767Z,99288.1
2023-01-21T04:15:28.266Z,99279.2
2023-01-21T04:21:24.614Z,99276.6
2023-01-21T04:27:02.694Z,99266.5
2023-01-21T04:34:00.846Z,99267
2023-01-21T04:40:07.139Z,99264.6
2023-01-21T04:45:45.703Z,99266.1
2023-01-21T04:51:22.720Z,99262
2023-01-21T04:56:58.423Z,99267.1
2023-01-21T05:02:51.368Z,99270.6
2023-01-21T05:08:28.149Z,99275.6
2023-01-21T05:14:29.399Z,99283.6
2023-01-21T05:20:05.209Z,99295.5
2023-01-21T05:25:41.496Z,99291.5
2023-01-21T05:31:20.758Z,99285.3
2023-01-21T05:36:58.363Z,99288.6
2023-01-21T05:42:54.377Z,99294.6
2023-01-21T05:49:03.253Z,99300.5
2023-01-21T05:55:27.795Z,99299.3
2023-01-21T06:01:32.435Z,99300.7
2023-01-21T06:07:16.655Z,99300.2
2023-01-21T06:12:57.042Z,99298.3
2023-01-21T06:18:35.597Z,99298.5
2023-01-21T06:24:17.051Z,99288.8
2023-01-21T06:29:54.801Z,99289.8
2023-01-21T06:35:52.034Z,99291.5
2023-01-21T06:41:27.241Z,99285.3
2023-01-21T06:47:03.419Z,99288.7
2023-01-21T06:52:38.953Z,99284
2023-01-21T06:58:36.016Z,99296.2
2023-01-21T07:04:11.111Z,99298.4
2023-01-21T07:10:06.121Z,99301.7
2023-01-21T07:15:50.473Z,99311.4
2023-01-21T07:22:07.996Z,99309.6
2023-01-21T07:28:21.573Z,99323.7
2023-01-21T07:33:56.504Z,99333.2
2023-01-21T07:39:31.333Z,99338.2
2023-01-21T07:45:06.680Z,99339.5
2023-01-21T07:50:42.323Z,99342.6
2023-01-21T07:56:17.246Z,99350.7
2023-01-21T08:01:53.518Z,99359.8
2023-01-21T08:07:31.015Z,99352.4
2023-01-21T08:13:06.036Z,99377.5
2023-01-21T08:18:43.961Z,99361.2
2023-01-21T08:24:19.483Z,99378.1
2023-01-21T08:29:54.356Z,99373.2
2023-01-21T08:35:29.705Z,99378.9
2023-01-21T08:41:05.721Z,99397.9
2023-01-21T08:46:43.475Z,99396.6
2023-01-21T08:52:18.804Z,99406.2
2023-01-21T08:57:54.622Z,99413.5
2023-01-21T09:03:30.657Z,99426.5
2023-01-21T09:09:10.615Z,99432.3
2023-01-21T09:14:51.300Z,99436.9
2023-01-21T09:20:27.502Z,99436.6
2023-01-21T09:26:03.442Z,99438.2
2023-01-21T09:31:39.100Z,99443.5
2023-01-21T09:37:14.531Z,99441.3
2023-01-21T09:42:50.326Z,99434.5
2023-01-21T09:48:26.074Z,99439.5
2023-01-21T09:54:01.725Z,99432.1
2023-01-21T09:59:37.207Z,99444.7
2023-01-21T10:05:12.380Z,99446.9
2023-01-21T10:10:48.544Z,99450.6
2023-01-21T10:16:25.498Z,99453.4
2023-01-21T10:22:03.124Z,99453.5
2023-01-21T10:27:38.934Z,99452.8
2023-01-21T10:33:46.610Z,99454.1
2023-01-21T10:39:22.919Z,99465.2
2023-01-21T10:44:58.168Z,99460.6
2023-01-21T10:50:34.318Z,99452.6
2023-01-21T10:56:43.563Z,99445.6
2023-01-21T11:02:19.636Z,99442.1
2023-01-21T11:08:16.709Z,99433.2
2023-01-21T11:13:56.749Z,99437
2023-01-21T11:19:47.002Z,99435
2023-01-21T11:25:25.059Z,99425.6
2023-01-21T11:31:01.954Z,99417.8
2023-01-21T11:36:40.117Z,99412.2
2023-01-21T11:42:23.000Z,99395
2023-01-21T11:48:20.227Z,99391.7
2023-01-21T11:53:53.302Z,99384.3
2023-01-21T11:59:38.990Z,99379.3
2023-01-21T12:05:14.567Z,99375.4
2023-01-21T12:11:32.513Z,99369.8
2023-01-21T12:17:08.917Z,99359.8
2023-01-21T12:22:44.466Z,99353.1
2023-01-21T12:31:02.147Z,99334.5
2023-01-21T12:37:33.842Z,99319.2
2023-01-21T12:43:09.308Z,99305.5
2023-01-21T12:48:44.459Z,99298.8
2023-01-21T12:54:19.989Z,99291.9
2023-01-21T12:59:55.517Z,99293.1
2023-01-21T13:05:39.140Z,99289.6
2023-01-21T13:11:26.664Z,99290
2023-01-21T13:17:01.958Z,99296.8
2023-01-21T13:22:43.387Z,99291
2023-01-21T13:28:20.858Z,99287.9
2023-01-21T13:33:56.458Z,99281.1
2023-01-21T13:39:31.600Z,99271.9
2023-01-21T13:45:56.236Z,99264.5
2023-01-21T13:51:46.566Z,99267.2
2023-01-21T13:57:33.152Z,99267.2
2023-01-21T14:03:18.130Z,99266.8
2023-01-21T14:08:56.037Z,99272
2023-01-21T14:14:31.286Z,99270.6
2023-01-21T14:20:19.718Z,99269.1
2023-01-21T14:25:58.577Z,99263.9
2023-01-21T14:31:37.039Z,99261.1
2023-01-21T14:37:12.597Z,99260.8
2023-01-21T14:42:47.601Z,99264.5
2023-01-21T14:48:26.325Z,99253.8
2023-01-21T14:54:04.722Z,99253
2023-01-21T15:00:10.263Z,99255.2
2023-01-21T15:05:51.312Z,99261.5
2023-01-21T15:11:32.763Z,99257.2
2023-01-21T15:17:08.371Z,99251.3
2023-01-21T15:22:46.758Z,99241
2023-01-21T15:28:25.944Z,99246.4
2023-01-21T15:34:02.011Z,99239.9
2023-01-21T15:39:42.849Z,99242.6
2023-01-21T15:45:21.248Z,99240.2
2023-01-21T15:50:57.129Z,99250.8
2023-01-21T15:56:35.593Z,99249.5
2023-01-21T16:02:23.759Z,99255.1
2023-01-21T16:08:00.694Z,99255.8
2023-01-21T16:13:37.432Z,99260.1
2023-01-21T16:19:18.920Z,99263.7
2023-01-21T16:24:57.567Z,99277.6
2023-01-21T16:30:38.185Z,99273.2
2023-01-21T16:36:41.477Z,99274.2
2023-01-21T16:42:32.541Z,99273.1
2023-01-21T16:48:38.890Z,99274
2023-01-21T16:54:29.754Z,99274.5
2023-01-21T17:00:06.825Z,99274.1
2023-01-21T17:05:45.462Z,99277.6
2023-01-21T17:11:20.455Z,99278.5
2023-01-21T17:16:59.996Z,99284.6
2023-01-21T17:22:35.267Z,99293.5
2023-01-21T17:28:19.591Z,99307.5
2023-01-21T17:33:58.369Z,99313
2023-01-21T17:39:34.466Z,99318.8
2023-01-21T17:45:09.500Z,99322.9
2023-01-21T17:50:56.035Z,99324.9
2023-01-21T17:56:35.203Z,99319.7
2023-01-21T18:02:48.942Z,99334.9
2023-01-21T18:08:24.973Z,99347.5
2023-01-21T18:13:59.925Z,99362.9
2023-01-21T18:19:36.429Z,99374.2
2023-01-21T18:25:11.647Z,99382.3
2023-01-21T18:30:51.858Z,99391
2023-01-21T18:36:28.864Z,99400
2023-01-21T18:42:32.042Z,99424.7
2023-01-21T18:48:31.878Z,99444.7
2023-01-21T18:54:05.860Z,99446.4
2023-01-21T18:59:41.559Z,99450.5
2023-01-21T19:05:27.244Z,99460.4
2023-01-21T19:11:11.158Z,99474.9
2023-01-21T19:16:46.327Z,99478.8
2023-01-21T19:22:52.626Z,99490
2023-01-21T19:28:28.733Z,99501.6
2023-01-21T19:34:06.930Z,99507
2023-01-21T19:39:44.711Z,99510.5
2023-01-21T19:45:20.776Z,99521.6
2023-01-21T19:50:59.488Z,99530.9
2023-01-21T19:56:43.898Z,99537.5
2023-01-21T20:02:21.216Z,99542.4
2023-01-21T20:08:01.013Z,99552.7
2023-01-21T20:13:57.009Z,99551.3
2023-01-21T20:19:37.385Z,99553.4
2023-01-21T20:25:16.332Z,99562.9
2023-01-21T20:31:28.142Z,99578.2
2023-01-21T20:37:04.358Z,99585.4
2023-01-21T20:42:39.597Z,99591
2023-01-21T20:48:17.615Z,99601.1
2023-01-21T20:53:53.518Z,99609.6
2023-01-21T20:59:28.554Z,99614
2023-01-21T21:05:11.195Z,99625.4
2023-01-21T21:11:31.003Z,99621.5
2023-01-21T21:17:08.570Z,99633.2
2023-01-21T21:23:12.952Z,99636.9
2023-01-21T21:28:50.406Z,99645
2023-01-21T21:34:51.235Z,99655.9
2023-01-21T21:40:26.097Z,99671.6
2023-01-21T21:46:05.914Z,99675.8
2023-01-21T21:51:47.993Z,99675
2023-01-21T21:57:28.496Z,99683.9
2023-01-21T22:03:04.010Z,99684.2
2023-01-21T22:08:39.008Z,99687.4
2023-01-21T22:14:34.756Z,99690.6
2023-01-21T22:20:13.603Z,99700.2
2023-01-21T22:25:48.900Z,99702.3
2023-01-21T22:31:28.425Z,99707.8
2023-01-21T22:37:05.444Z,99710.5
2023-01-21T22:42:50.480Z,99711
2023-01-21T22:48:50.462Z,99716.3
2023-01-21T22:54:23.573Z,99723.8
2023-01-21T23:00:10.321Z,99722.1
2023-01-21T23:06:22.247Z,99723.5
2023-01-21T23:12:18.290Z,99721.7
2023-01-21T23:18:02.609Z,99727.1
2023-01-21T23:23:38.567Z,99734.5
2023-01-21T23:29:13.824Z,99729.5
2023-01-21T23:34:49.347Z,99724
2023-01-21T23:40:24.152Z,99718.9
2023-01-21T23:46:32.096Z,99723.6
2023-01-21T23:52:05.790Z,99729.3
2023-01-21T23:58:19.676Z,99726.9
